Time;durP1;ratioP1;P1;durP2;ratioP2;P2;SDS_P1;SDS_P2;PMS_P1;PMS_P2;Temp;Humidity;BMP_temperature;BMP_pressure;BME280_temperature;BME280_humidity;BME280_pressure;Samples;Min_cycle;Max_cycle;Signal;HPM_P1;HPM_P2
2023/05/28 00:00:34;;;;;;;16.88;8.48;;;;;;;13.13;73.94;101960.84;5038143;28;20028;-84
2023/05/28 00:03:00;;;;;;;14.75;8.05;;;;;;;13.14;73.93;101962.56;5036938;28;20032;-84
2023/05/28 00:05:25;;;;;;;15.20;8.52;;;;;;;13.07;74.27;101960.41;5035279;28;20029;-84
2023/05/28 00:07:50;;;;;;;19.60;8.55;;;;;;;13.07;74.46;101957.75;5037057;28;20075;-83
2023/05/28 00:10:16;;;;;;;17.98;8.57;;;;;;;13.05;74.84;101957.84;5036996;28;20029;-83
2023/05/28 00:12:41;;;;;;;18.35;9.07;;;;;;;13.00;75.30;101959.13;5036938;28;20024;-83
2023/05/28 00:15:07;;;;;;;18.80;8.77;;;;;;;12.97;74.69;101954.84;5037287;28;20112;-83
2023/05/28 00:17:36;;;;;;;19.10;8.65;;;;;;;12.83;75.62;101947.81;5038095;28;20072;-84
2023/05/28 00:20:02;;;;;;;19.90;9.10;;;;;;;12.87;74.69;101944.00;5046516;28;20073;-83
2023/05/28 00:22:27;;;;;;;16.65;8.95;;;;;;;12.83;75.44;101945.16;5047395;28;20006;-83
2023/05/28 00:24:52;;;;;;;21.50;9.40;;;;;;;12.68;75.73;101931.06;5051181;28;20095;-83
2023/05/28 00:27:18;;;;;;;16.33;8.63;;;;;;;12.74;75.98;101943.97;5059831;28;20288;-83
2023/05/28 00:29:43;;;;;;;21.58;9.55;;;;;;;12.64;76.30;101931.38;5058958;28;20030;-83
2023/05/28 00:32:09;;;;;;;14.52;9.05;;;;;;;12.62;76.85;101933.28;5042329;28;20018;-83
2023/05/28 00:34:34;;;;;;;19.65;9.57;;;;;;;12.55;76.76;101935.50;5036318;28;20028;-84
2023/05/28 00:36:59;;;;;;;12.75;9.18;;;;;;;12.58;76.57;101946.81;5036058;28;20021;-85
2023/05/28 00:39:25;;;;;;;16.92;9.40;;;;;;;12.51;76.90;101955.34;5035262;28;20505;-83
2023/05/28 00:42:00;;;;;;;15.57;9.27;;;;;;;12.44;77.34;101948.69;5035629;28;20021;-83
2023/05/28 00:44:26;;;;;;;14.07;8.48;;;;;;;12.32;77.30;101940.59;5035399;28;20021;-83
2023/05/28 00:46:51;;;;;;;16.63;9.15;;;;;;;12.33;76.88;101952.09;5036016;28;20108;-83
2023/05/28 00:49:17;;;;;;;14.75;9.32;;;;;;;12.29;77.70;101948.78;5030781;28;20491;-83
2023/05/28 00:51:42;;;;;;;17.58;9.43;;;;;;;12.32;78.00;101955.69;5035327;28;20013;-83
2023/05/28 00:54:07;;;;;;;17.65;9.82;;;;;;;12.15;78.41;101940.84;5035464;28;20032;-84
2023/05/28 00:56:34;;;;;;;18.30;10.10;;;;;;;12.21;78.49;101949.28;5037001;28;20086;-84
2023/05/28 00:59:00;;;;;;;16.17;10.15;;;;;;;12.14;78.87;101940.00;5035218;28;20414;-84
2023/05/28 01:01:26;;;;;;;19.45;9.48;;;;;;;12.12;79.35;101939.22;5034036;28;20026;-84
2023/05/28 01:03:52;;;;;;;20.42;11.05;;;;;;;12.11;79.70;101932.19;5035565;28;20071;-83
2023/05/28 01:06:20;;;;;;;18.05;10.52;;;;;;;12.12;79.09;101938.38;5035155;28;20082;-83
2023/05/28 01:08:47;;;;;;;18.80;10.23;;;;;;;12.07;79.47;101941.31;5036103;28;20029;-83
2023/05/28 01:11:15;;;;;;;18.88;10.38;;;;;;;12.01;80.00;101942.59;5035101;28;20037;-83
2023/05/28 01:13:41;;;;;;;17.10;11.05;;;;;;;12.01;80.68;101944.41;5041498;28;20037;-83
2023/05/28 01:16:06;;;;;;;24.88;11.05;;;;;;;11.93;80.58;101939.56;5035652;28;20045;-83
2023/05/28 01:18:32;;;;;;;17.13;10.63;;;;;;;11.92;80.96;101937.84;5035466;28;20031;-83
2023/05/28 01:21:01;;;;;;;19.05;9.98;;;;;;;11.94;81.03;101938.63;5025034;28;20497;-84
2023/05/28 01:23:28;;;;;;;19.77;10.13;;;;;;;11.87;80.90;101934.59;5035882;28;20025;-85
2023/05/28 01:25:55;;;;;;;18.63;10.55;;;;;;;11.93;80.98;101942.25;5028266;28;20474;-82
2023/05/28 01:28:21;;;;;;;18.80;10.15;;;;;;;11.89;81.87;101946.03;5036116;28;20021;-83
2023/05/28 01:30:47;;;;;;;21.65;10.50;;;;;;;11.85;81.73;101950.69;5035960;28;20121;-83
2023/05/28 01:33:13;;;;;;;19.40;10.82;;;;;;;11.84;82.00;101945.47;5039467;28;20451;-83
2023/05/28 01:35:40;;;;;;;21.52;10.50;;;;;;;11.77;81.51;101936.16;5035619;28;20574;-83
2023/05/28 01:38:06;;;;;;;25.40;11.55;;;;;;;11.83;81.98;101949.09;5036298;28;20052;-83
2023/05/28 01:40:34;;;;;;;24.25;10.50;;;;;;;11.81;81.80;101946.50;5030026;28;20049;-83
2023/05/28 01:43:01;;;;;;;20.63;11.30;;;;;;;11.78;82.83;101946.72;5031210;28;20026;-83
2023/05/28 01:45:28;;;;;;;21.13;11.50;;;;;;;11.80;82.66;101950.13;5033824;28;20025;-83
2023/05/28 01:47:54;;;;;;;21.48;10.80;;;;;;;11.76;83.04;101950.44;5040828;28;20048;-83
2023/05/28 01:50:19;;;;;;;22.17;10.80;;;;;;;11.72;83.02;101947.09;5036340;28;20419;-83
2023/05/28 01:52:45;;;;;;;19.60;10.38;;;;;;;11.72;83.52;101952.41;5035735;28;20025;-83
2023/05/28 01:55:11;;;;;;;19.60;11.35;;;;;;;11.66;83.52;101942.19;5045998;28;20494;-84
2023/05/28 01:57:37;;;;;;;21.27;10.90;;;;;;;11.58;83.52;101931.16;5033676;28;20159;-84
2023/05/28 02:00:03;;;;;;;22.73;10.90;;;;;;;11.70;83.68;101946.34;5033582;28;20037;-83
2023/05/28 02:02:29;;;;;;;20.80;10.80;;;;;;;11.67;83.82;101941.22;5033934;28;20100;-84
2023/05/28 02:04:54;;;;;;;18.45;10.73;;;;;;;11.63;84.21;101929.91;5033882;28;20078;-83
2023/05/28 02:07:20;;;;;;;18.80;10.90;;;;;;;11.64;84.39;101936.97;5032340;28;20033;-83
2023/05/28 02:09:45;;;;;;;16.05;10.48;;;;;;;11.59;84.00;101940.84;5044668;28;20084;-83
2023/05/28 02:12:11;;;;;;;17.60;10.85;;;;;;;11.55;84.33;101934.88;5054847;28;20022;-83
2023/05/28 02:14:36;;;;;;;21.85;10.70;;;;;;;11.55;85.10;101931.34;5036998;28;20033;-84
2023/05/28 02:17:02;;;;;;;18.10;11.02;;;;;;;11.53;85.53;101927.94;5045015;28;20041;-84
2023/05/28 02:19:28;;;;;;;17.45;10.52;;;;;;;11.54;84.48;101933.19;5043240;28;20049;-83
2023/05/28 02:21:54;;;;;;;20.85;10.32;;;;;;;11.52;84.23;101923.56;5039714;28;20052;-83
2023/05/28 02:24:19;;;;;;;14.63;10.30;;;;;;;11.50;84.21;101921.00;5041612;28;20117;-83
2023/05/28 02:26:44;;;;;;;17.92;10.57;;;;;;;11.50;83.91;101922.81;5042917;28;20030;-84
2023/05/28 02:29:10;;;;;;;20.48;10.25;;;;;;;11.46;84.70;101925.66;5043312;28;20037;-84
2023/05/28 02:31:35;;;;;;;18.65;10.32;;;;;;;11.46;85.42;101925.66;5041275;28;20026;-84
2023/05/28 02:34:00;;;;;;;19.05;11.18;;;;;;;11.47;84.92;101918.53;5037737;28;20037;-83
2023/05/28 02:36:25;;;;;;;16.98;10.68;;;;;;;11.41;85.55;101922.44;5032549;28;20033;-83
2023/05/28 02:38:51;;;;;;;16.95;10.70;;;;;;;11.40;84.99;101912.75;5037950;28;20026;-82
2023/05/28 02:41:16;;;;;;;16.40;10.10;;;;;;;11.35;85.34;101914.00;5036695;28;20083;-82
2023/05/28 02:43:43;;;;;;;18.83;10.20;;;;;;;11.34;85.68;101921.13;5024574;28;20307;-84
2023/05/28 02:46:08;;;;;;;18.73;10.68;;;;;;;11.38;85.90;101921.78;5026052;28;20088;-82
2023/05/28 02:48:34;;;;;;;19.75;10.82;;;;;;;11.36;85.00;101927.19;5037161;28;20403;-82
2023/05/28 02:50:59;;;;;;;18.58;10.18;;;;;;;11.33;85.78;101932.72;5036787;28;20530;-83
2023/05/28 02:53:30;;;;;;;17.30;10.05;;;;;;;11.27;85.95;101933.97;5021784;28;20037;-83
2023/05/28 02:55:55;;;;;;;18.65;10.63;;;;;;;11.27;85.24;101925.97;5033821;28;20040;-83
2023/05/28 02:58:20;;;;;;;20.38;10.02;;;;;;;11.28;85.26;101924.16;5035563;28;20029;-84
2023/05/28 03:00:46;;;;;;;19.75;10.13;;;;;;;11.20;85.30;101923.78;5035220;28;20033;-83
2023/05/28 03:03:11;;;;;;;17.98;10.80;;;;;;;11.14;85.73;101918.84;5029767;28;20045;-83
2023/05/28 03:05:36;;;;;;;20.30;10.60;;;;;;;11.08;85.63;101923.59;5032892;28;20026;-83
2023/05/28 03:08:02;;;;;;;19.45;10.98;;;;;;;11.16;85.59;101938.19;5033758;28;20074;-83
2023/05/28 03:10:27;;;;;;;19.05;10.40;;;;;;;11.11;85.86;101936.69;5033340;28;20037;-84
2023/05/28 03:12:52;;;;;;;18.08;10.07;;;;;;;11.06;85.60;101924.66;5035286;28;20479;-82
2023/05/28 03:15:18;;;;;;;20.70;11.65;;;;;;;11.06;85.86;101929.97;5034878;28;20080;-82
2023/05/28 03:17:43;;;;;;;25.13;10.93;;;;;;;11.06;86.53;101925.50;5035947;28;20029;-82
2023/05/28 03:20:10;;;;;;;18.10;10.80;;;;;;;11.02;86.73;101926.59;5035432;28;20084;-83
2023/05/28 03:22:36;;;;;;;20.20;11.05;;;;;;;11.00;86.74;101933.84;5035134;28;20075;-83
2023/05/28 03:25:02;;;;;;;18.95;10.48;;;;;;;10.97;86.72;101925.19;5024951;28;20026;-83
2023/05/28 03:27:27;;;;;;;20.58;10.88;;;;;;;10.93;86.19;101929.84;5034504;28;20379;-83
2023/05/28 03:29:53;;;;;;;20.20;10.43;;;;;;;10.87;86.67;101923.06;5036622;28;20036;-82
2023/05/28 03:32:18;;;;;;;14.90;9.90;;;;;;;10.87;86.31;101928.41;5040686;28;20013;-83
2023/05/28 03:34:43;;;;;;;16.77;10.20;;;;;;;10.80;86.10;101918.25;5034043;28;20754;-83
2023/05/28 03:37:08;;;;;;;19.52;10.13;;;;;;;10.84;86.79;101927.72;5041257;28;20025;-83
2023/05/28 03:39:34;;;;;;;19.25;10.20;;;;;;;10.81;86.93;101927.91;5041403;28;20049;-83
2023/05/28 03:41:59;;;;;;;20.45;10.27;;;;;;;10.78;87.33;101928.97;5044831;28;20021;-83
2023/05/28 03:44:25;;;;;;;19.15;10.68;;;;;;;10.78;86.72;101933.44;5044364;28;20517;-83
2023/05/28 03:46:50;;;;;;;17.92;10.43;;;;;;;10.78;87.11;101939.59;5044900;28;20026;-82
2023/05/28 03:49:15;;;;;;;20.95;10.40;;;;;;;10.72;86.88;101927.53;5033725;28;20080;-82
2023/05/28 03:51:40;;;;;;;18.92;9.90;;;;;;;10.74;88.10;101948.69;5051728;28;20037;-82
2023/05/28 03:54:06;;;;;;;18.02;10.55;;;;;;;10.66;87.49;101935.03;5051414;28;20049;-82
2023/05/28 03:56:33;;;;;;;20.88;10.70;;;;;;;10.71;87.48;101936.44;5056338;28;20032;-83
2023/05/28 03:58:59;;;;;;;15.43;9.73;;;;;;;10.76;87.63;101944.16;5050286;28;20025;-81
2023/05/28 04:01:30;;;;;;;18.65;10.13;;;;;;;10.68;86.82;101927.81;5051828;28;20414;-82
2023/05/28 04:03:55;;;;;;;18.60;9.82;;;;;;;10.76;87.46;101935.31;5048576;28;20054;-82
2023/05/28 04:06:22;;;;;;;17.10;9.60;;;;;;;10.71;87.85;101933.78;5042880;28;20021;-83
2023/05/28 04:08:48;;;;;;;20.45;10.25;;;;;;;10.77;87.71;101945.84;5043808;28;20418;-83
2023/05/28 04:11:13;;;;;;;18.23;9.57;;;;;;;10.78;87.80;101944.91;5043801;28;20108;-83
2023/05/28 04:13:40;;;;;;;15.77;9.13;;;;;;;10.79;87.16;101953.72;5044367;28;20463;-83
2023/05/28 04:16:07;;;;;;;21.33;10.85;;;;;;;10.80;87.44;101943.00;5047867;28;20383;-82
2023/05/28 04:18:33;;;;;;;17.92;9.45;;;;;;;10.86;87.51;101949.78;5049895;28;20052;-81
2023/05/28 04:20:59;;;;;;;22.55;9.90;;;;;;;10.80;87.79;101948.31;5056515;28;20079;-82
2023/05/28 04:23:24;;;;;;;16.27;9.20;;;;;;;10.89;87.27;101960.19;5066268;28;20037;-82
2023/05/28 04:25:50;;;;;;;16.60;9.73;;;;;;;10.90;87.89;101956.59;5051311;28;20029;-83
2023/05/28 04:28:15;;;;;;;17.38;9.73;;;;;;;10.88;88.12;101948.72;5050505;28;20040;-83
2023/05/28 04:30:41;;;;;;;18.65;10.30;;;;;;;10.92;88.10;101958.25;5049725;28;20049;-83
2023/05/28 04:33:06;;;;;;;18.58;10.18;;;;;;;10.93;87.58;101951.09;5049728;28;20033;-83
2023/05/28 04:35:32;;;;;;;20.20;10.45;;;;;;;10.98;87.96;101958.81;5048866;28;20426;-83
2023/05/28 04:37:59;;;;;;;14.70;9.57;;;;;;;10.93;88.09;101951.09;5048001;28;20029;-82
2023/05/28 04:40:24;;;;;;;19.88;10.82;;;;;;;11.02;88.10;101966.50;5062522;28;20423;-82
2023/05/28 04:42:53;;;;;;;18.40;10.65;;;;;;;11.07;88.87;101967.09;5048654;28;20029;-83
2023/05/28 04:45:19;;;;;;;23.05;10.73;;;;;;;11.11;88.94;101971.25;5048399;28;20033;-83
2023/05/28 04:47:44;;;;;;;17.52;10.57;;;;;;;11.17;88.55;101975.34;5046968;28;20021;-83
2023/05/28 04:50:09;;;;;;;26.48;11.07;;;;;;;11.24;89.35;101967.84;5042264;28;20093;-83
2023/05/28 04:52:35;;;;;;;24.70;10.25;;;;;;;11.29;88.92;101969.28;5040584;28;20048;-83
2023/05/28 04:55:04;;;;;;;18.88;9.88;;;;;;;11.37;89.09;101968.78;5041049;28;20456;-82
2023/05/28 04:57:30;;;;;;;16.92;11.20;;;;;;;11.44;89.55;101966.59;5042255;28;20034;-83
2023/05/28 04:59:55;;;;;;;18.80;10.38;;;;;;;11.55;89.42;101965.94;5034156;28;20030;-83
2023/05/28 05:02:21;;;;;;;19.95;11.07;;;;;;;11.62;89.54;101954.84;5047899;28;20026;-82
2023/05/28 05:04:47;;;;;;;17.38;9.73;;;;;;;11.75;88.81;101967.34;5048892;28;20037;-83
2023/05/28 05:07:13;;;;;;;22.40;10.55;;;;;;;11.82;89.40;101976.63;5042408;28;20057;-82
2023/05/28 05:09:39;;;;;;;17.80;9.85;;;;;;;11.89;88.88;101967.34;5038983;28;20071;-82
2023/05/28 05:12:05;;;;;;;17.02;10.13;;;;;;;11.95;89.18;101964.28;5048640;28;20029;-82
2023/05/28 05:14:31;;;;;;;18.35;10.23;;;;;;;12.00;89.62;101972.81;5035894;28;20022;-83
2023/05/28 05:16:56;;;;;;;25.73;10.50;;;;;;;12.06;88.86;101970.72;5048135;28;20116;-83
2023/05/28 05:19:21;;;;;;;17.92;10.60;;;;;;;12.13;89.30;101972.06;5049769;28;20053;-82
2023/05/28 05:21:47;;;;;;;22.27;10.02;;;;;;;12.19;89.77;101974.28;5045549;28;20036;-82
2023/05/28 05:24:21;;;;;;;17.73;9.90;;;;;;;12.18;89.39;101968.13;5043002;28;20416;-82
2023/05/28 05:26:46;;;;;;;23.90;10.18;;;;;;;12.34;89.50;101978.63;5036743;28;20042;-81
2023/05/28 05:29:12;;;;;;;21.30;10.15;;;;;;;12.45;89.76;101974.41;5048523;28;20055;-81
2023/05/28 05:31:37;;;;;;;21.38;10.02;;;;;;;12.66;89.97;101983.63;5057186;28;20105;-81
2023/05/28 05:34:03;;;;;;;19.33;10.00;;;;;;;12.87;88.36;101978.66;5053408;28;20037;-81
2023/05/28 05:36:28;;;;;;;21.05;10.02;;;;;;;13.08;87.57;101983.47;5052063;28;20026;-82
2023/05/28 05:38:56;;;;;;;21.55;9.70;;;;;;;13.28;86.85;101982.94;5046783;28;20029;-81
2023/05/28 05:41:21;;;;;;;19.08;9.48;;;;;;;13.45;86.15;101980.94;5046482;28;20037;-82
2023/05/28 05:43:47;;;;;;;19.65;9.05;;;;;;;13.70;86.19;101990.72;5047048;28;20117;-81
2023/05/28 05:46:12;;;;;;;19.92;9.90;;;;;;;13.92;85.11;101983.81;5049215;28;20037;-82
2023/05/28 05:48:38;;;;;;;23.50;9.95;;;;;;;14.14;83.98;101981.28;5046215;28;20040;-83
2023/05/28 05:51:03;;;;;;;19.63;9.88;;;;;;;14.36;82.45;101985.91;5034426;28;20049;-82
2023/05/28 05:53:29;;;;;;;20.52;9.60;;;;;;;14.61;81.96;101990.28;5031404;28;20091;-83
2023/05/28 05:55:55;;;;;;;20.35;9.40;;;;;;;14.77;80.54;101981.09;5025466;28;20124;-83
2023/05/28 05:58:21;;;;;;;21.38;9.25;;;;;;;14.99;80.14;101981.16;5031303;28;20459;-83
2023/05/28 06:00:47;;;;;;;18.85;8.82;;;;;;;15.04;78.74;101977.25;5036216;28;20037;-83
2023/05/28 06:03:13;;;;;;;18.60;9.55;;;;;;;15.34;77.05;101987.41;5037572;28;20030;-83
2023/05/28 06:05:39;;;;;;;19.55;9.25;;;;;;;15.54;76.56;101993.88;5036854;28;20042;-82
2023/05/28 06:08:05;;;;;;;20.48;9.63;;;;;;;15.75;76.41;101975.22;5024676;28;20040;-83
2023/05/28 06:10:30;;;;;;;16.55;9.15;;;;;;;15.95;74.39;101991.53;5034649;28;20049;-83
2023/05/28 06:12:56;;;;;;;17.20;9.32;;;;;;;16.13;74.24;101983.84;5045204;28;20029;-83
2023/05/28 06:15:22;;;;;;;20.55;8.95;;;;;;;16.25;73.08;101982.81;5037938;28;20026;-83
2023/05/28 06:17:48;;;;;;;19.60;8.80;;;;;;;16.43;71.53;101983.97;5062403;28;20032;-83
2023/05/28 06:20:13;;;;;;;19.25;8.32;;;;;;;16.62;71.35;101987.78;5031214;28;20155;-83
2023/05/28 06:22:39;;;;;;;20.05;8.43;;;;;;;16.74;70.38;101972.50;5040222;28;20582;-83
2023/05/28 06:25:06;;;;;;;17.80;7.97;;;;;;;16.91;70.04;101988.03;5037403;28;20033;-83
2023/05/28 06:27:32;;;;;;;15.63;8.07;;;;;;;17.12;69.31;101979.09;5038054;28;20021;-82
2023/05/28 06:30:00;;;;;;;17.90;8.52;;;;;;;17.39;68.30;101976.72;5040223;28;20045;-82
2023/05/28 06:32:25;;;;;;;17.52;8.30;;;;;;;17.55;67.28;101968.16;5036287;28;20033;-83
2023/05/28 06:35:29;;;;;;;19.05;8.90;;;;;;;17.65;66.79;101952.09;5034886;28;20029;-82
2023/05/28 06:38:16;;;;;;;20.00;8.55;;;;;;;18.04;66.23;101972.84;5037139;28;20044;-81
2023/05/28 06:40:41;;;;;;;19.73;7.80;;;;;;;18.15;63.06;101953.03;5036373;28;20041;-83
2023/05/28 06:43:07;;;;;;;14.48;8.02;;;;;;;18.41;61.45;101973.00;5036898;28;20089;-81
2023/05/28 06:45:32;;;;;;;13.70;7.68;;;;;;;18.65;62.47;101967.22;5028378;28;20484;-83
2023/05/28 06:47:58;;;;;;;18.80;6.90;;;;;;;18.85;60.47;101973.44;5039905;28;20273;-82
2023/05/28 06:50:27;;;;;;;18.75;8.07;;;;;;;19.03;58.47;101970.84;5038560;28;20042;-83
2023/05/28 06:52:52;;;;;;;14.02;7.22;;;;;;;19.16;57.43;101969.69;5038159;28;20025;-83
2023/05/28 06:55:18;;;;;;;13.90;7.60;;;;;;;19.18;58.83;101948.81;5051764;28;20032;-83
2023/05/28 06:57:52;;;;;;;15.07;7.80;;;;;;;19.62;58.12;101973.31;5036566;28;20025;-82
2023/05/28 07:00:18;;;;;;;13.85;7.38;;;;;;;19.72;57.47;101946.31;5016972;28;20062;-83
2023/05/28 07:02:46;;;;;;;16.02;7.40;;;;;;;19.88;56.66;101927.63;5017163;28;20022;-84
2023/05/28 07:05:12;;;;;;;15.95;7.80;;;;;;;20.15;56.47;101937.53;5030378;28;20022;-84
2023/05/28 07:07:41;;;;;;;13.50;7.70;;;;;;;20.48;54.90;101964.81;5034349;28;20044;-84
2023/05/28 07:10:08;;;;;;;17.10;7.63;;;;;;;20.50;53.11;101938.53;5034607;28;20467;-83
2023/05/28 07:12:33;;;;;;;14.32;7.40;;;;;;;20.93;53.64;101972.94;5035211;28;20021;-83
2023/05/28 07:14:59;;;;;;;15.38;7.32;;;;;;;21.12;52.87;101961.94;5036028;28;20039;-83
2023/05/28 07:17:24;;;;;;;16.65;7.18;;;;;;;21.31;51.93;101946.50;5038109;28;20034;-84
2023/05/28 07:19:52;;;;;;;15.68;7.70;;;;;;;21.50;51.00;101976.00;5038481;28;20111;-84
2023/05/28 07:22:17;;;;;;;15.57;7.43;;;;;;;21.69;50.93;101976.75;5039061;28;20383;-84
2023/05/28 07:24:50;;;;;;;17.83;7.40;;;;;;;22.03;50.52;101973.13;5039257;28;20033;-84
2023/05/28 07:27:16;;;;;;;13.45;6.93;;;;;;;22.12;49.97;101955.91;5038776;28;20311;-84
2023/05/28 07:29:41;;;;;;;16.23;7.18;;;;;;;22.31;47.64;101966.44;5040549;28;20026;-84
2023/05/28 07:32:07;;;;;;;18.73;6.50;;;;;;;22.28;47.51;101965.91;5040160;28;20053;-84
2023/05/28 07:34:43;;;;;;;14.85;6.60;;;;;;;22.31;47.47;101961.03;5039955;28;20514;-83
2023/05/28 07:37:08;;;;;;;15.30;6.88;;;;;;;22.46;47.14;101955.78;5038772;28;20068;-80
2023/05/28 07:39:34;;;;;;;12.55;6.35;;;;;;;22.62;46.81;101954.94;5036892;28;20072;-80
2023/05/28 07:41:59;;;;;;;13.13;6.95;;;;;;;22.68;47.56;101948.88;5024982;28;20468;-82
2023/05/28 07:44:25;;;;;;;15.80;7.15;;;;;;;22.72;45.59;101952.91;5026222;28;20029;-81
2023/05/28 07:46:50;;;;;;;13.15;6.20;;;;;;;23.23;47.13;101985.19;5037780;28;20037;-81
2023/05/28 07:49:16;;;;;;;17.58;6.32;;;;;;;23.42;46.01;101973.09;5035398;28;20501;-80
2023/05/28 07:51:42;;;;;;;15.02;6.28;;;;;;;23.69;44.82;101984.50;5027916;28;20025;-82
2023/05/28 07:54:07;;;;;;;13.07;6.63;;;;;;;23.49;42.66;101948.84;5036954;28;20045;-82
2023/05/28 07:56:33;;;;;;;14.32;6.43;;;;;;;23.85;43.12;101972.78;5036755;28;20029;-82
2023/05/28 07:58:58;;;;;;;14.75;5.90;;;;;;;24.08;42.56;101971.94;5020259;28;20117;-82
2023/05/28 08:01:23;;;;;;;15.05;7.13;;;;;;;24.17;43.63;101970.88;5016217;28;20561;-82
2023/05/28 08:03:51;;;;;;;12.98;6.18;;;;;;;24.22;44.63;101981.22;5036666;28;20072;-81
2023/05/28 08:06:17;;;;;;;14.57;7.00;;;;;;;24.35;44.91;101979.56;5038133;28;20037;-82
2023/05/28 08:08:43;;;;;;;18.92;8.32;;;;;;;24.38;44.50;101978.34;5036262;28;20068;-82
2023/05/28 08:11:10;;;;;;;18.45;10.23;;;;;;;24.44;44.88;101974.06;5037712;28;20434;-82
2023/05/28 08:13:36;;;;;;;31.00;8.10;;;;;;;24.53;44.29;101978.41;5037742;28;20030;-82
2023/05/28 08:16:02;;;;;;;19.50;7.85;;;;;;;24.77;44.05;101981.97;5037623;28;20095;-83
2023/05/28 08:18:28;;;;;;;16.70;8.70;;;;;;;24.99;43.31;101988.38;5036337;28;20430;-81
2023/05/28 08:20:53;;;;;;;14.00;7.20;;;;;;;25.27;45.29;101978.59;5035213;28;20025;-82
2023/05/28 08:23:19;;;;;;;19.13;7.68;;;;;;;25.36;43.44;101978.50;5036464;28;20082;-82
2023/05/28 08:25:44;;;;;;;16.35;7.38;;;;;;;25.54;42.10;101978.94;5036450;28;20022;-82
2023/05/28 08:28:10;;;;;;;17.88;8.00;;;;;;;25.71;41.46;101973.28;5035638;28;20075;-82
2023/05/28 08:30:36;;;;;;;15.23;7.47;;;;;;;25.84;41.32;101985.16;5045212;28;20044;-83
2023/05/28 08:33:01;;;;;;;19.02;7.35;;;;;;;26.02;41.30;101979.34;5037398;28;20033;-82
2023/05/28 08:35:27;;;;;;;15.35;6.53;;;;;;;26.21;40.96;101969.72;5035665;28;20061;-82
2023/05/28 08:37:52;;;;;;;13.18;6.97;;;;;;;26.23;39.15;101977.69;5035518;28;20416;-83
2023/05/28 08:40:20;;;;;;;17.63;7.25;;;;;;;26.37;39.79;101967.75;5036105;28;20357;-82
2023/05/28 08:42:46;;;;;;;13.10;6.55;;;;;;;26.47;39.68;101973.72;5031322;28;20045;-83
2023/05/28 08:45:11;;;;;;;15.13;6.68;;;;;;;26.58;38.81;101965.00;5029785;28;20018;-83
2023/05/28 08:47:45;;;;;;;14.52;6.72;;;;;;;26.73;38.84;101961.38;5035650;28;20463;-83
2023/05/28 08:50:14;;;;;;;14.20;6.88;;;;;;;26.82;37.76;101953.91;5034848;28;20036;-82
2023/05/28 08:52:43;;;;;;;16.13;7.32;;;;;;;26.85;38.20;101967.97;5035912;28;20368;-83
2023/05/28 08:55:08;;;;;;;16.52;7.30;;;;;;;26.87;37.75;101959.59;5041601;28;20109;-83
2023/05/28 08:57:34;;;;;;;11.70;6.32;;;;;;;27.13;38.95;101962.50;5047207;28;20040;-82
2023/05/28 09:00:05;;;;;;;11.90;6.38;;;;;;;27.17;38.35;101962.09;5044633;28;20067;-82
2023/05/28 09:02:30;;;;;;;11.00;6.93;;;;;;;27.31;38.59;101942.03;5039438;28;20051;-82
2023/05/28 09:04:57;;;;;;;14.00;6.73;;;;;;;27.54;38.50;101949.09;5039310;28;20493;-82
2023/05/28 09:07:23;;;;;;;13.25;6.60;;;;;;;27.55;37.42;101951.63;5054784;28;20086;-81
2023/05/28 09:09:49;;;;;;;13.20;6.32;;;;;;;27.54;36.59;101947.19;5063790;28;20037;-82
2023/05/28 09:12:20;;;;;;;15.18;6.25;;;;;;;27.60;36.40;101935.47;5045014;28;20048;-83
2023/05/28 09:14:51;;;;;;;13.23;5.70;;;;;;;27.86;35.22;101933.84;5044440;28;20029;-82
2023/05/28 09:17:16;;;;;;;13.70;4.93;;;;;;;27.97;34.68;101946.09;5042379;28;20035;-82
2023/05/28 09:19:54;;;;;;;11.50;4.47;;;;;;;28.14;34.58;101941.91;5037345;28;20503;-83
2023/05/28 09:22:19;;;;;;;10.57;4.57;;;;;;;28.12;32.53;101935.00;5036512;28;20076;-83
2023/05/28 09:24:49;;;;;;;9.55;4.10;;;;;;;28.24;32.16;101938.78;5036590;28;20021;-82
2023/05/28 09:27:19;;;;;;;10.32;4.47;;;;;;;28.21;31.66;101944.66;5033207;28;20091;-83
2023/05/28 09:29:44;;;;;;;13.27;5.00;;;;;;;28.20;32.66;101946.56;5034878;28;20108;-83
2023/05/28 09:32:10;;;;;;;10.35;4.90;;;;;;;28.32;32.25;101945.94;5035458;28;20446;-82
2023/05/28 09:34:42;;;;;;;9.77;4.20;;;;;;;28.36;32.76;101934.38;5029477;28;20141;-83
2023/05/28 09:37:08;;;;;;;12.43;4.65;;;;;;;28.30;32.09;101942.59;5026203;28;20120;-83
2023/05/28 09:39:33;;;;;;;11.02;4.72;;;;;;;28.58;31.89;101942.41;5037412;28;20493;-83
2023/05/28 09:42:03;;;;;;;9.75;4.70;;;;;;;28.41;32.89;101947.41;5035240;28;20048;-83
2023/05/28 09:44:33;;;;;;;8.20;4.55;;;;;;;28.35;32.19;101940.06;5034351;28;20060;-83
2023/05/28 09:46:58;;;;;;;12.18;4.75;;;;;;;28.38;31.60;101939.66;5029493;28;20026;-84
2023/05/28 09:49:27;;;;;;;11.23;4.68;;;;;;;28.21;32.03;101931.84;5036095;28;20061;-83
2023/05/28 09:51:57;;;;;;;10.07;4.50;;;;;;;28.00;30.54;101930.13;5033988;28;20476;-83
2023/05/28 09:54:28;;;;;;;10.68;3.85;;;;;;;28.09;31.05;101924.47;5033166;28;20017;-83
2023/05/28 09:56:57;;;;;;;8.30;4.15;;;;;;;28.18;31.70;101926.81;5034554;28;20021;-83
2023/05/28 09:59:24;;;;;;;12.98;4.28;;;;;;;28.33;31.45;101928.47;5029514;28;20029;-83
2023/05/28 10:02:18;;;;;;;11.40;4.35;;;;;;;28.38;31.80;101931.44;5041905;28;20028;-82
2023/05/28 10:04:45;;;;;;;10.70;4.25;;;;;;;28.33;30.71;101917.56;5041390;28;20023;-83
2023/05/28 10:07:11;;;;;;;9.68;4.05;;;;;;;28.55;31.66;101927.22;5041447;28;20055;-82
2023/05/28 10:09:39;;;;;;;10.15;3.95;;;;;;;28.46;30.70;101914.81;5035960;28;20328;-84
2023/05/28 10:12:10;;;;;;;10.02;4.10;;;;;;;28.72;29.89;101929.56;5029003;28;20017;-83
2023/05/28 10:14:42;;;;;;;8.77;3.60;;;;;;;28.64;30.16;101935.25;5039560;28;20029;-83
2023/05/28 10:17:08;;;;;;;8.38;3.53;;;;;;;28.42;29.12;101928.06;5037104;28;20041;-83
2023/05/28 10:19:36;;;;;;;7.60;3.92;;;;;;;28.37;29.23;101935.22;5044308;28;20438;-83
2023/05/28 10:22:01;;;;;;;12.15;3.70;;;;;;;28.50;29.69;101931.66;5053570;28;20052;-83
2023/05/28 10:24:31;;;;;;;7.57;3.63;;;;;;;28.58;29.38;101935.03;5043304;28;20037;-83
2023/05/28 10:26:56;;;;;;;8.07;3.53;;;;;;;28.57;28.85;101929.78;5042216;28;20075;-82
2023/05/28 10:29:22;;;;;;;6.75;3.53;;;;;;;28.41;28.49;101929.13;5028914;28;20504;-83
2023/05/28 10:31:59;;;;;;;11.73;4.15;;;;;;;28.29;29.53;101927.22;5034298;28;20048;-83
2023/05/28 10:34:34;;;;;;;9.75;4.22;;;;;;;28.20;29.87;101927.44;5035497;28;20038;-83
2023/05/28 10:37:05;;;;;;;9.18;3.90;;;;;;;28.17;29.70;101924.28;5048561;28;20044;-83
2023/05/28 10:39:38;;;;;;;9.93;4.20;;;;;;;28.17;29.49;101935.22;5044152;28;20048;-82
2023/05/28 10:42:08;;;;;;;9.68;4.32;;;;;;;28.40;28.88;101926.63;5052893;28;20042;-81
2023/05/28 10:44:59;;;;;;;10.02;4.47;;;;;;;28.71;30.70;101934.19;5051617;28;20052;-82
2023/05/28 10:47:35;;;;;;;10.07;4.35;;;;;;;28.44;29.89;101927.84;5013057;28;20056;-83
2023/05/28 10:50:23;;;;;;;10.20;4.03;;;;;;;28.51;31.77;101941.53;5036952;28;20029;-83
2023/05/28 10:53:08;;;;;;;8.40;4.18;;;;;;;28.33;30.30;101923.00;5021080;28;20073;-83
2023/05/28 10:55:48;;;;;;;8.82;4.22;;;;;;;28.14;30.86;101928.25;5033179;28;20608;-84
2023/05/28 10:58:25;;;;;;;10.32;4.00;;;;;;;28.11;30.58;101931.44;5037218;28;20021;-81
2023/05/28 11:00:50;;;;;;;8.93;3.90;;;;;;;27.99;29.93;101933.91;5035199;28;20040;-83
2023/05/28 11:03:18;;;;;;;9.52;3.95;;;;;;;27.86;31.01;101940.16;5038994;28;20487;-83
2023/05/28 11:05:44;;;;;;;10.07;4.30;;;;;;;28.02;30.99;101940.84;5019686;28;20037;-82
2023/05/28 11:08:10;;;;;;;11.18;4.45;;;;;;;27.87;30.47;101935.53;5029007;28;20159;-82
2023/05/28 11:10:36;;;;;;;10.63;3.63;;;;;;;27.87;30.67;101932.81;5052621;28;20496;-81
2023/05/28 11:13:01;;;;;;;7.82;3.47;;;;;;;27.95;31.48;101940.00;5038263;28;20079;-83